sensor_id;sensor_type;location;lat;lon;timestamp;P1;durP1;ratioP1;P2;durP2;ratioP2
13897;SDS011;7019;50.766;4.474;2022-10-16T00:01:25;2.63;;;0.70;;
13897;SDS011;7019;50.766;4.474;2022-10-16T00:03:54;2.43;;;0.80;;
13897;SDS011;7019;50.766;4.474;2022-10-16T00:06:22;1.70;;;0.70;;
13897;SDS011;7019;50.766;4.474;2022-10-16T00:08:49;2.80;;;0.73;;
13897;SDS011;7019;50.766;4.474;2022-10-16T00:11:18;1.00;;;0.60;;
13897;SDS011;7019;50.766;4.474;2022-10-16T00:13:48;2.33;;;0.80;;
13897;SDS011;7019;50.766;4.474;2022-10-16T00:16:17;3.17;;;0.73;;
13897;SDS011;7019;50.766;4.474;2022-10-16T00:18:45;2.07;;;0.67;;
13897;SDS011;7019;50.766;4.474;2022-10-16T00:21:13;3.00;;;0.80;;
13897;SDS011;7019;50.766;4.474;2022-10-16T00:23:42;2.00;;;0.90;;
13897;SDS011;7019;50.766;4.474;2022-10-16T00:26:11;0.80;;;0.80;;
13897;SDS011;7019;50.766;4.474;2022-10-16T00:28:44;3.40;;;1.00;;
13897;SDS011;7019;50.766;4.474;2022-10-16T00:31:14;2.00;;;0.90;;
13897;SDS011;7019;50.766;4.474;2022-10-16T00:33:42;2.70;;;1.10;;
13897;SDS011;7019;50.766;4.474;2022-10-16T00:36:10;1.07;;;0.70;;
13897;SDS011;7019;50.766;4.474;2022-10-16T00:38:38;1.10;;;0.70;;
13897;SDS011;7019;50.766;4.474;2022-10-16T00:41:06;1.20;;;0.80;;
13897;SDS011;7019;50.766;4.474;2022-10-16T00:43:37;3.00;;;0.87;;
13897;SDS011;7019;50.766;4.474;2022-10-16T00:46:09;1.27;;;0.90;;
13897;SDS011;7019;50.766;4.474;2022-10-16T00:48:41;2.73;;;1.00;;
13897;SDS011;7019;50.766;4.474;2022-10-16T00:51:11;1.33;;;0.80;;
13897;SDS011;7019;50.766;4.474;2022-10-16T00:53:38;2.70;;;0.70;;
13897;SDS011;7019;50.766;4.474;2022-10-16T00:56:06;3.00;;;1.00;;
13897;SDS011;7019;50.766;4.474;2022-10-16T00:58:33;3.93;;;1.00;;
13897;SDS011;7019;50.766;4.474;2022-10-16T01:01:00;2.00;;;0.90;;
13897;SDS011;7019;50.766;4.474;2022-10-16T01:03:28;3.20;;;1.00;;
13897;SDS011;7019;50.766;4.474;2022-10-16T01:06:04;1.30;;;0.80;;
13897;SDS011;7019;50.766;4.474;2022-10-16T01:08:47;3.13;;;1.10;;
13897;SDS011;7019;50.766;4.474;2022-10-16T01:11:27;1.80;;;0.93;;
13897;SDS011;7019;50.766;4.474;2022-10-16T01:14:02;2.17;;;1.00;;
13897;SDS011;7019;50.766;4.474;2022-10-16T01:16:37;1.10;;;0.97;;
13897;SDS011;7019;50.766;4.474;2022-10-16T01:19:09;1.07;;;0.97;;
13897;SDS011;7019;50.766;4.474;2022-10-16T01:21:41;2.40;;;1.23;;
13897;SDS011;7019;50.766;4.474;2022-10-16T01:24:12;1.50;;;1.17;;
13897;SDS011;7019;50.766;4.474;2022-10-16T01:26:58;2.37;;;1.20;;
13897;SDS011;7019;50.766;4.474;2022-10-16T01:29:33;2.07;;;1.30;;
13897;SDS011;7019;50.766;4.474;2022-10-16T01:32:07;3.17;;;1.47;;
13897;SDS011;7019;50.766;4.474;2022-10-16T01:34:41;5.77;;;1.50;;
13897;SDS011;7019;50.766;4.474;2022-10-16T01:37:14;4.60;;;1.50;;
13897;SDS011;7019;50.766;4.474;2022-10-16T01:39:45;1.27;;;1.10;;
13897;SDS011;7019;50.766;4.474;2022-10-16T01:42:18;2.60;;;1.30;;
13897;SDS011;7019;50.766;4.474;2022-10-16T01:44:47;1.57;;;1.17;;
13897;SDS011;7019;50.766;4.474;2022-10-16T01:47:16;5.00;;;1.30;;
13897;SDS011;7019;50.766;4.474;2022-10-16T01:49:46;2.70;;;1.43;;
13897;SDS011;7019;50.766;4.474;2022-10-16T01:52:14;3.33;;;1.23;;
13897;SDS011;7019;50.766;4.474;2022-10-16T01:54:46;6.20;;;1.20;;
13897;SDS011;7019;50.766;4.474;2022-10-16T01:57:17;2.30;;;1.27;;
13897;SDS011;7019;50.766;4.474;2022-10-16T01:59:48;3.57;;;1.50;;
13897;SDS011;7019;50.766;4.474;2022-10-16T02:02:18;5.67;;;1.50;;
13897;SDS011;7019;50.766;4.474;2022-10-16T02:04:47;3.90;;;1.30;;
13897;SDS011;7019;50.766;4.474;2022-10-16T02:07:18;2.87;;;1.60;;
13897;SDS011;7019;50.766;4.474;2022-10-16T02:09:45;2.10;;;1.27;;
13897;SDS011;7019;50.766;4.474;2022-10-16T02:12:13;1.90;;;1.70;;
13897;SDS011;7019;50.766;4.474;2022-10-16T02:14:47;2.27;;;1.53;;
13897;SDS011;7019;50.766;4.474;2022-10-16T02:17:15;2.97;;;1.50;;
13897;SDS011;7019;50.766;4.474;2022-10-16T02:19:44;5.20;;;1.80;;
13897;SDS011;7019;50.766;4.474;2022-10-16T02:22:15;2.73;;;1.30;;
13897;SDS011;7019;50.766;4.474;2022-10-16T02:24:46;1.87;;;1.37;;
13897;SDS011;7019;50.766;4.474;2022-10-16T02:27:21;1.67;;;1.27;;
13897;SDS011;7019;50.766;4.474;2022-10-16T02:29:55;1.67;;;1.57;;
13897;SDS011;7019;50.766;4.474;2022-10-16T02:32:27;4.57;;;1.63;;
13897;SDS011;7019;50.766;4.474;2022-10-16T02:34:57;1.60;;;1.40;;
13897;SDS011;7019;50.766;4.474;2022-10-16T02:37:26;7.77;;;1.40;;
13897;SDS011;7019;50.766;4.474;2022-10-16T02:39:54;6.87;;;1.93;;
13897;SDS011;7019;50.766;4.474;2022-10-16T02:42:27;2.80;;;1.80;;
13897;SDS011;7019;50.766;4.474;2022-10-16T02:44:56;3.43;;;1.70;;
13897;SDS011;7019;50.766;4.474;2022-10-16T02:47:23;4.27;;;1.87;;
13897;SDS011;7019;50.766;4.474;2022-10-16T02:49:50;3.23;;;2.00;;
13897;SDS011;7019;50.766;4.474;2022-10-16T02:52:17;3.93;;;1.70;;
13897;SDS011;7019;50.766;4.474;2022-10-16T02:54:44;2.50;;;1.60;;
13897;SDS011;7019;50.766;4.474;2022-10-16T02:57:11;4.47;;;1.90;;
13897;SDS011;7019;50.766;4.474;2022-10-16T02:59:38;4.73;;;1.97;;
13897;SDS011;7019;50.766;4.474;2022-10-16T03:02:07;4.63;;;1.90;;
13897;SDS011;7019;50.766;4.474;2022-10-16T03:04:34;3.30;;;1.97;;
13897;SDS011;7019;50.766;4.474;2022-10-16T03:07:01;8.23;;;2.63;;
13897;SDS011;7019;50.766;4.474;2022-10-16T03:09:28;4.93;;;2.03;;
13897;SDS011;7019;50.766;4.474;2022-10-16T03:11:55;4.03;;;1.83;;
13897;SDS011;7019;50.766;4.474;2022-10-16T03:14:22;5.07;;;2.43;;
13897;SDS011;7019;50.766;4.474;2022-10-16T03:16:49;5.80;;;2.30;;
13897;SDS011;7019;50.766;4.474;2022-10-16T03:19:18;8.07;;;2.37;;
13897;SDS011;7019;50.766;4.474;2022-10-16T03:21:45;5.40;;;2.50;;
13897;SDS011;7019;50.766;4.474;2022-10-16T03:24:12;4.10;;;1.80;;
13897;SDS011;7019;50.766;4.474;2022-10-16T03:26:39;4.57;;;1.83;;
13897;SDS011;7019;50.766;4.474;2022-10-16T03:29:06;3.73;;;1.93;;
13897;SDS011;7019;50.766;4.474;2022-10-16T03:31:34;3.53;;;1.87;;
13897;SDS011;7019;50.766;4.474;2022-10-16T03:34:01;4.37;;;2.20;;
13897;SDS011;7019;50.766;4.474;2022-10-16T03:36:29;3.63;;;2.13;;
13897;SDS011;7019;50.766;4.474;2022-10-16T03:38:56;4.07;;;2.23;;
13897;SDS011;7019;50.766;4.474;2022-10-16T03:41:23;3.57;;;2.17;;
13897;SDS011;7019;50.766;4.474;2022-10-16T03:43:50;2.70;;;1.90;;
13897;SDS011;7019;50.766;4.474;2022-10-16T03:46:17;2.40;;;2.20;;
13897;SDS011;7019;50.766;4.474;2022-10-16T03:48:45;3.60;;;1.90;;
13897;SDS011;7019;50.766;4.474;2022-10-16T03:51:12;4.93;;;2.20;;
13897;SDS011;7019;50.766;4.474;2022-10-16T03:53:40;2.30;;;2.10;;
13897;SDS011;7019;50.766;4.474;2022-10-16T03:56:07;3.53;;;2.23;;
13897;SDS011;7019;50.766;4.474;2022-10-16T03:58:34;3.30;;;2.60;;
13897;SDS011;7019;50.766;4.474;2022-10-16T04:01:01;6.27;;;2.60;;
13897;SDS011;7019;50.766;4.474;2022-10-16T04:03:28;3.23;;;2.10;;
13897;SDS011;7019;50.766;4.474;2022-10-16T04:05:56;5.60;;;2.40;;
13897;SDS011;7019;50.766;4.474;2022-10-16T04:08:23;6.13;;;2.50;;
13897;SDS011;7019;50.766;4.474;2022-10-16T04:10:51;4.03;;;2.33;;
13897;SDS011;7019;50.766;4.474;2022-10-16T04:13:18;4.73;;;2.80;;
13897;SDS011;7019;50.766;4.474;2022-10-16T04:15:45;3.33;;;2.40;;
13897;SDS011;7019;50.766;4.474;2022-10-16T04:18:12;5.47;;;3.00;;
13897;SDS011;7019;50.766;4.474;2022-10-16T04:20:40;7.60;;;2.50;;
13897;SDS011;7019;50.766;4.474;2022-10-16T04:23:07;10.37;;;2.90;;
13897;SDS011;7019;50.766;4.474;2022-10-16T04:25:34;7.07;;;3.10;;
13897;SDS011;7019;50.766;4.474;2022-10-16T04:28:02;7.17;;;2.63;;
13897;SDS011;7019;50.766;4.474;2022-10-16T04:30:30;2.83;;;2.20;;
13897;SDS011;7019;50.766;4.474;2022-10-16T04:32:58;3.87;;;2.50;;
13897;SDS011;7019;50.766;4.474;2022-10-16T04:35:25;4.57;;;2.30;;
13897;SDS011;7019;50.766;4.474;2022-10-16T04:37:52;6.03;;;2.77;;
13897;SDS011;7019;50.766;4.474;2022-10-16T04:40:19;3.80;;;2.53;;
13897;SDS011;7019;50.766;4.474;2022-10-16T04:42:46;3.73;;;2.20;;
13897;SDS011;7019;50.766;4.474;2022-10-16T04:45:15;5.73;;;2.50;;
13897;SDS011;7019;50.766;4.474;2022-10-16T04:47:42;5.97;;;2.47;;
13897;SDS011;7019;50.766;4.474;2022-10-16T04:50:09;3.70;;;2.20;;
13897;SDS011;7019;50.766;4.474;2022-10-16T04:52:36;3.47;;;2.47;;
13897;SDS011;7019;50.766;4.474;2022-10-16T04:55:04;4.50;;;2.70;;
13897;SDS011;7019;50.766;4.474;2022-10-16T04:57:32;5.43;;;2.57;;
13897;SDS011;7019;50.766;4.474;2022-10-16T04:59:59;6.03;;;2.77;;
13897;SDS011;7019;50.766;4.474;2022-10-16T05:02:29;3.90;;;2.77;;
13897;SDS011;7019;50.766;4.474;2022-10-16T05:04:56;6.00;;;2.67;;
13897;SDS011;7019;50.766;4.474;2022-10-16T05:07:23;8.37;;;2.90;;
13897;SDS011;7019;50.766;4.474;2022-10-16T05:09:50;4.13;;;2.40;;
13897;SDS011;7019;50.766;4.474;2022-10-16T05:12:18;4.40;;;2.67;;
13897;SDS011;7019;50.766;4.474;2022-10-16T05:14:45;4.30;;;2.63;;
13897;SDS011;7019;50.766;4.474;2022-10-16T05:17:12;4.93;;;2.70;;
13897;SDS011;7019;50.766;4.474;2022-10-16T05:19:40;4.77;;;2.90;;
13897;SDS011;7019;50.766;4.474;2022-10-16T05:22:08;3.73;;;2.53;;
13897;SDS011;7019;50.766;4.474;2022-10-16T05:24:35;3.97;;;2.33;;
13897;SDS011;7019;50.766;4.474;2022-10-16T05:27:02;6.30;;;3.00;;
13897;SDS011;7019;50.766;4.474;2022-10-16T05:29:29;5.73;;;2.50;;
13897;SDS011;7019;50.766;4.474;2022-10-16T05:31:57;4.43;;;2.80;;
13897;SDS011;7019;50.766;4.474;2022-10-16T05:34:24;3.83;;;2.30;;
13897;SDS011;7019;50.766;4.474;2022-10-16T05:36:52;4.47;;;2.67;;
13897;SDS011;7019;50.766;4.474;2022-10-16T05:39:19;6.83;;;3.30;;
13897;SDS011;7019;50.766;4.474;2022-10-16T05:41:46;7.13;;;3.33;;
13897;SDS011;7019;50.766;4.474;2022-10-16T05:44:16;7.17;;;3.20;;
13897;SDS011;7019;50.766;4.474;2022-10-16T05:46:43;4.97;;;3.17;;
13897;SDS011;7019;50.766;4.474;2022-10-16T05:49:12;7.83;;;2.93;;
13897;SDS011;7019;50.766;4.474;2022-10-16T05:51:40;5.03;;;3.03;;
13897;SDS011;7019;50.766;4.474;2022-10-16T05:54:08;6.40;;;2.90;;
13897;SDS011;7019;50.766;4.474;2022-10-16T05:56:35;5.30;;;2.90;;
13897;SDS011;7019;50.766;4.474;2022-10-16T05:59:03;8.00;;;3.40;;
13897;SDS011;7019;50.766;4.474;2022-10-16T06:01:31;8.10;;;3.17;;
13897;SDS011;7019;50.766;4.474;2022-10-16T06:03:58;6.20;;;3.20;;
13897;SDS011;7019;50.766;4.474;2022-10-16T06:06:26;4.67;;;3.47;;
13897;SDS011;7019;50.766;4.474;2022-10-16T06:08:55;4.53;;;3.23;;
13897;SDS011;7019;50.766;4.474;2022-10-16T06:11:25;8.20;;;3.33;;
13897;SDS011;7019;50.766;4.474;2022-10-16T06:13:54;7.37;;;3.70;;
13897;SDS011;7019;50.766;4.474;2022-10-16T06:16:23;9.70;;;4.20;;
13897;SDS011;7019;50.766;4.474;2022-10-16T06:18:51;8.57;;;3.90;;
13897;SDS011;7019;50.766;4.474;2022-10-16T06:21:19;10.20;;;4.33;;
13897;SDS011;7019;50.766;4.474;2022-10-16T06:23:47;13.00;;;4.33;;
13897;SDS011;7019;50.766;4.474;2022-10-16T06:26:15;5.63;;;3.83;;
13897;SDS011;7019;50.766;4.474;2022-10-16T06:28:45;5.20;;;2.97;;
13897;SDS011;7019;50.766;4.474;2022-10-16T06:31:12;9.33;;;4.03;;
13897;SDS011;7019;50.766;4.474;2022-10-16T06:33:39;8.83;;;3.40;;
13897;SDS011;7019;50.766;4.474;2022-10-16T06:36:08;8.00;;;3.97;;
13897;SDS011;7019;50.766;4.474;2022-10-16T06:38:36;7.17;;;4.17;;
13897;SDS011;7019;50.766;4.474;2022-10-16T06:41:04;7.67;;;3.90;;
13897;SDS011;7019;50.766;4.474;2022-10-16T06:43:32;6.13;;;4.20;;
13897;SDS011;7019;50.766;4.474;2022-10-16T06:46:02;5.53;;;4.10;;
13897;SDS011;7019;50.766;4.474;2022-10-16T06:48:30;9.10;;;4.10;;
13897;SDS011;7019;50.766;4.474;2022-10-16T06:50:58;6.80;;;4.23;;
13897;SDS011;7019;50.766;4.474;2022-10-16T06:53:27;6.83;;;3.93;;
13897;SDS011;7019;50.766;4.474;2022-10-16T06:55:55;8.03;;;4.80;;
13897;SDS011;7019;50.766;4.474;2022-10-16T06:58:23;8.93;;;4.43;;
13897;SDS011;7019;50.766;4.474;2022-10-16T07:00:54;8.30;;;5.00;;
13897;SDS011;7019;50.766;4.474;2022-10-16T07:03:23;7.97;;;4.17;;
13897;SDS011;7019;50.766;4.474;2022-10-16T07:05:50;7.57;;;4.37;;
13897;SDS011;7019;50.766;4.474;2022-10-16T07:08:17;9.67;;;4.77;;
13897;SDS011;7019;50.766;4.474;2022-10-16T07:10:44;14.70;;;4.73;;
13897;SDS011;7019;50.766;4.474;2022-10-16T07:13:11;8.70;;;3.80;;
13897;SDS011;7019;50.766;4.474;2022-10-16T07:15:39;10.20;;;4.20;;
13897;SDS011;7019;50.766;4.474;2022-10-16T07:18:06;7.07;;;4.30;;
13897;SDS011;7019;50.766;4.474;2022-10-16T07:20:35;11.90;;;7.30;;
13897;SDS011;7019;50.766;4.474;2022-10-16T07:23:02;17.57;;;9.73;;
13897;SDS011;7019;50.766;4.474;2022-10-16T07:25:29;6.97;;;4.67;;
13897;SDS011;7019;50.766;4.474;2022-10-16T07:27:56;4.63;;;4.07;;
13897;SDS011;7019;50.766;4.474;2022-10-16T07:30:23;5.90;;;3.97;;
13897;SDS011;7019;50.766;4.474;2022-10-16T07:32:50;4.00;;;3.30;;
13897;SDS011;7019;50.766;4.474;2022-10-16T07:35:17;8.27;;;3.50;;
13897;SDS011;7019;50.766;4.474;2022-10-16T07:37:46;7.33;;;3.57;;
13897;SDS011;7019;50.766;4.474;2022-10-16T07:40:13;6.10;;;3.33;;
13897;SDS011;7019;50.766;4.474;2022-10-16T07:42:40;6.80;;;3.37;;
13897;SDS011;7019;50.766;4.474;2022-10-16T07:45:08;4.40;;;2.90;;
13897;SDS011;7019;50.766;4.474;2022-10-16T07:47:35;6.40;;;2.97;;
13897;SDS011;7019;50.766;4.474;2022-10-16T07:50:02;7.23;;;2.60;;
13897;SDS011;7019;50.766;4.474;2022-10-16T07:52:30;6.97;;;3.13;;
13897;SDS011;7019;50.766;4.474;2022-10-16T07:54:58;3.83;;;3.00;;
13897;SDS011;7019;50.766;4.474;2022-10-16T07:57:25;9.93;;;5.73;;
13897;SDS011;7019;50.766;4.474;2022-10-16T07:59:52;22.20;;;16.53;;
13897;SDS011;7019;50.766;4.474;2022-10-16T08:02:19;8.10;;;2.67;;
13897;SDS011;7019;50.766;4.474;2022-10-16T08:04:46;3.60;;;2.13;;
13897;SDS011;7019;50.766;4.474;2022-10-16T08:07:15;3.73;;;2.60;;
13897;SDS011;7019;50.766;4.474;2022-10-16T08:09:42;5.60;;;2.03;;
13897;SDS011;7019;50.766;4.474;2022-10-16T08:12:10;3.77;;;1.80;;
13897;SDS011;7019;50.766;4.474;2022-10-16T08:14:37;5.77;;;2.43;;
13897;SDS011;7019;50.766;4.474;2022-10-16T08:17:05;4.27;;;2.17;;
13897;SDS011;7019;50.766;4.474;2022-10-16T08:19:32;4.03;;;1.77;;
13897;SDS011;7019;50.766;4.474;2022-10-16T08:21:59;6.00;;;1.97;;
13897;SDS011;7019;50.766;4.474;2022-10-16T08:24:27;3.37;;;2.30;;
13897;SDS011;7019;50.766;4.474;2022-10-16T08:26:55;7.20;;;2.20;;
13897;SDS011;7019;50.766;4.474;2022-10-16T08:29:24;4.70;;;2.10;;
13897;SDS011;7019;50.766;4.474;2022-10-16T08:31:51;4.13;;;2.23;;
13897;SDS011;7019;50.766;4.474;2022-10-16T08:34:18;4.43;;;1.70;;
13897;SDS011;7019;50.766;4.474;2022-10-16T08:36:45;4.10;;;1.80;;
13897;SDS011;7019;50.766;4.474;2022-10-16T08:39:12;5.33;;;2.70;;
13897;SDS011;7019;50.766;4.474;2022-10-16T08:44:48;3.93;;;1.70;;
13897;SDS011;7019;50.766;4.474;2022-10-16T08:47:35;3.53;;;1.50;;
13897;SDS011;7019;50.766;4.474;2022-10-16T08:50:11;5.70;;;1.40;;
13897;SDS011;7019;50.766;4.474;2022-10-16T08:52:40;3.60;;;1.23;;
13897;SDS011;7019;50.766;4.474;2022-10-16T08:55:14;8.63;;;1.30;;
13897;SDS011;7019;50.766;4.474;2022-10-16T08:57:51;4.40;;;1.13;;
13897;SDS011;7019;50.766;4.474;2022-10-16T09:00:19;4.77;;;1.40;;
13897;SDS011;7019;50.766;4.474;2022-10-16T09:02:49;7.50;;;1.23;;
13897;SDS011;7019;50.766;4.474;2022-10-16T09:05:28;2.57;;;0.83;;
13897;SDS011;7019;50.766;4.474;2022-10-16T09:08:12;4.47;;;1.27;;
13897;SDS011;7019;50.766;4.474;2022-10-16T09:10:49;5.20;;;1.50;;
13897;SDS011;7019;50.766;4.474;2022-10-16T09:13:26;6.87;;;1.50;;
13897;SDS011;7019;50.766;4.474;2022-10-16T09:15:58;4.80;;;1.63;;
13897;SDS011;7019;50.766;4.474;2022-10-16T09:18:37;3.27;;;1.30;;
13897;SDS011;7019;50.766;4.474;2022-10-16T09:21:13;11.70;;;6.80;;
13897;SDS011;7019;50.766;4.474;2022-10-16T09:23:44;5.17;;;1.90;;
13897;SDS011;7019;50.766;4.474;2022-10-16T09:26:13;5.37;;;1.67;;
13897;SDS011;7019;50.766;4.474;2022-10-16T09:28:43;4.60;;;1.57;;
13897;SDS011;7019;50.766;4.474;2022-10-16T09:31:14;5.50;;;1.10;;
13897;SDS011;7019;50.766;4.474;2022-10-16T09:33:43;5.33;;;1.50;;
13897;SDS011;7019;50.766;4.474;2022-10-16T09:36:13;3.60;;;1.20;;
13897;SDS011;7019;50.766;4.474;2022-10-16T09:38:41;5.37;;;1.00;;
13897;SDS011;7019;50.766;4.474;2022-10-16T09:41:13;3.20;;;1.30;;
13897;SDS011;7019;50.766;4.474;2022-10-16T09:43:46;5.37;;;1.77;;
13897;SDS011;7019;50.766;4.474;2022-10-16T09:46:24;5.17;;;1.07;;
13897;SDS011;7019;50.766;4.474;2022-10-16T09:48:54;2.90;;;0.97;;
13897;SDS011;7019;50.766;4.474;2022-10-16T09:51:24;4.33;;;0.80;;
13897;SDS011;7019;50.766;4.474;2022-10-16T09:53:54;5.03;;;1.03;;
13897;SDS011;7019;50.766;4.474;2022-10-16T09:56:23;8.70;;;1.47;;
13897;SDS011;7019;50.766;4.474;2022-10-16T09:58:52;3.90;;;0.90;;
13897;SDS011;7019;50.766;4.474;2022-10-16T10:01:20;4.30;;;0.93;;
13897;SDS011;7019;50.766;4.474;2022-10-16T10:03:51;3.73;;;0.80;;
13897;SDS011;7019;50.766;4.474;2022-10-16T10:06:26;5.40;;;1.00;;
13897;SDS011;7019;50.766;4.474;2022-10-16T10:08:59;6.60;;;0.80;;
13897;SDS011;7019;50.766;4.474;2022-10-16T10:11:43;4.33;;;0.93;;
13897;SDS011;7019;50.766;4.474;2022-10-16T10:14:16;3.30;;;1.07;;
13897;SDS011;7019;50.766;4.474;2022-10-16T10:17:01;3.57;;;0.60;;
13897;SDS011;7019;50.766;4.474;2022-10-16T10:19:37;4.40;;;1.00;;
13897;SDS011;7019;50.766;4.474;2022-10-16T10:22:13;3.37;;;0.70;;
13897;SDS011;7019;50.766;4.474;2022-10-16T10:24:56;4.33;;;0.90;;
13897;SDS011;7019;50.766;4.474;2022-10-16T10:27:44;4.00;;;0.83;;
13897;SDS011;7019;50.766;4.474;2022-10-16T10:30:35;5.87;;;1.07;;
13897;SDS011;7019;50.766;4.474;2022-10-16T10:33:20;7.13;;;1.27;;
13897;SDS011;7019;50.766;4.474;2022-10-16T10:35:56;4.67;;;0.63;;
13897;SDS011;7019;50.766;4.474;2022-10-16T10:38:35;3.53;;;1.07;;
13897;SDS011;7019;50.766;4.474;2022-10-16T10:41:14;2.70;;;0.63;;
13897;SDS011;7019;50.766;4.474;2022-10-16T10:43:55;1.57;;;0.53;;
13897;SDS011;7019;50.766;4.474;2022-10-16T10:46:31;4.93;;;0.90;;
13897;SDS011;7019;50.766;4.474;2022-10-16T10:49:06;2.33;;;0.50;;
13897;SDS011;7019;50.766;4.474;2022-10-16T10:51:44;3.93;;;0.80;;
13897;SDS011;7019;50.766;4.474;2022-10-16T10:54:20;2.43;;;0.90;;
13897;SDS011;7019;50.766;4.474;2022-10-16T10:56:56;3.33;;;1.00;;
13897;SDS011;7019;50.766;4.474;2022-10-16T11:02:18;2.57;;;0.80;;
13897;SDS011;7019;50.766;4.474;2022-10-16T11:07:49;1.40;;;0.50;;
13897;SDS011;7019;50.766;4.474;2022-10-16T11:10:20;4.33;;;0.80;;
13897;SDS011;7019;50.766;4.474;2022-10-16T11:12:52;3.87;;;0.80;;
13897;SDS011;7019;50.766;4.474;2022-10-16T11:15:24;3.67;;;0.80;;
13897;SDS011;7019;50.766;4.474;2022-10-16T11:17:57;4.30;;;1.03;;
13897;SDS011;7019;50.766;4.474;2022-10-16T11:20:33;4.00;;;0.70;;
13897;SDS011;7019;50.766;4.474;2022-10-16T11:23:07;5.27;;;0.90;;
13897;SDS011;7019;50.766;4.474;2022-10-16T11:25:40;4.83;;;1.07;;
13897;SDS011;7019;50.766;4.474;2022-10-16T11:28:10;1.87;;;0.57;;
13897;SDS011;7019;50.766;4.474;2022-10-16T11:30:41;4.93;;;1.00;;
13897;SDS011;7019;50.766;4.474;2022-10-16T11:33:24;2.43;;;0.80;;
13897;SDS011;7019;50.766;4.474;2022-10-16T11:36:00;4.07;;;0.90;;
13897;SDS011;7019;50.766;4.474;2022-10-16T11:38:34;4.00;;;0.90;;
13897;SDS011;7019;50.766;4.474;2022-10-16T11:41:09;4.30;;;0.70;;
13897;SDS011;7019;50.766;4.474;2022-10-16T11:43:45;3.50;;;0.60;;
13897;SDS011;7019;50.766;4.474;2022-10-16T11:46:20;2.37;;;0.70;;
13897;SDS011;7019;50.766;4.474;2022-10-16T11:48:50;2.63;;;0.60;;
13897;SDS011;7019;50.766;4.474;2022-10-16T11:51:23;4.27;;;0.83;;
13897;SDS011;7019;50.766;4.474;2022-10-16T11:53:57;2.07;;;0.50;;
13897;SDS011;7019;50.766;4.474;2022-10-16T11:56:28;2.40;;;0.40;;
13897;SDS011;7019;50.766;4.474;2022-10-16T11:58:59;2.50;;;0.63;;
13897;SDS011;7019;50.766;4.474;2022-10-16T12:01:31;5.93;;;1.03;;
13897;SDS011;7019;50.766;4.474;2022-10-16T12:04:06;3.83;;;0.93;;
13897;SDS011;7019;50.766;4.474;2022-10-16T12:06:45;3.17;;;0.40;;
13897;SDS011;7019;50.766;4.474;2022-10-16T12:09:19;2.90;;;0.73;;
13897;SDS011;7019;50.766;4.474;2022-10-16T12:11:50;1.83;;;0.70;;
13897;SDS011;7019;50.766;4.474;2022-10-16T12:14:34;4.23;;;0.77;;
13897;SDS011;7019;50.766;4.474;2022-10-16T12:17:04;3.63;;;1.00;;
13897;SDS011;7019;50.766;4.474;2022-10-16T12:19:56;4.13;;;0.87;;
13897;SDS011;7019;50.766;4.474;2022-10-16T12:22:28;4.57;;;0.70;;
13897;SDS011;7019;50.766;4.474;2022-10-16T12:24:57;5.63;;;1.03;;
13897;SDS011;7019;50.766;4.474;2022-10-16T12:27:27;2.10;;;0.70;;
13897;SDS011;7019;50.766;4.474;2022-10-16T12:29:56;2.30;;;0.67;;
13897;SDS011;7019;50.766;4.474;2022-10-16T12:32:27;2.00;;;0.60;;
13897;SDS011;7019;50.766;4.474;2022-10-16T12:34:55;4.67;;;0.80;;
13897;SDS011;7019;50.766;4.474;2022-10-16T12:37:23;1.13;;;0.50;;
13897;SDS011;7019;50.766;4.474;2022-10-16T12:39:54;4.77;;;0.70;;
13897;SDS011;7019;50.766;4.474;2022-10-16T12:42:30;4.40;;;0.80;;
13897;SDS011;7019;50.766;4.474;2022-10-16T12:45:00;4.53;;;0.70;;
13897;SDS011;7019;50.766;4.474;2022-10-16T12:47:38;3.57;;;1.20;;
13897;SDS011;7019;50.766;4.474;2022-10-16T12:50:28;4.20;;;0.83;;
13897;SDS011;7019;50.766;4.474;2022-10-16T12:52:58;4.63;;;0.60;;
13897;SDS011;7019;50.766;4.474;2022-10-16T12:55:29;2.70;;;1.17;;
13897;SDS011;7019;50.766;4.474;2022-10-16T13:01:20;1.47;;;0.60;;
13897;SDS011;7019;50.766;4.474;2022-10-16T13:07:13;5.93;;;1.20;;
13897;SDS011;7019;50.766;4.474;2022-10-16T13:09:53;2.67;;;0.80;;
13897;SDS011;7019;50.766;4.474;2022-10-16T13:12:35;2.63;;;0.80;;
13897;SDS011;7019;50.766;4.474;2022-10-16T13:15:16;5.50;;;1.13;;
13897;SDS011;7019;50.766;4.474;2022-10-16T13:17:54;2.87;;;0.80;;
13897;SDS011;7019;50.766;4.474;2022-10-16T13:20:29;8.73;;;1.27;;
13897;SDS011;7019;50.766;4.474;2022-10-16T13:23:03;9.13;;;1.20;;
13897;SDS011;7019;50.766;4.474;2022-10-16T13:25:44;2.97;;;0.87;;
13897;SDS011;7019;50.766;4.474;2022-10-16T13:28:22;3.97;;;1.27;;
13897;SDS011;7019;50.766;4.474;2022-10-16T13:30:56;4.33;;;1.07;;
13897;SDS011;7019;50.766;4.474;2022-10-16T13:33:26;5.80;;;1.57;;
13897;SDS011;7019;50.766;4.474;2022-10-16T13:35:58;5.00;;;1.07;;
13897;SDS011;7019;50.766;4.474;2022-10-16T13:38:26;2.97;;;0.83;;
13897;SDS011;7019;50.766;4.474;2022-10-16T13:40:54;4.83;;;1.60;;
13897;SDS011;7019;50.766;4.474;2022-10-16T13:43:25;7.53;;;1.40;;
13897;SDS011;7019;50.766;4.474;2022-10-16T13:45:56;4.33;;;1.50;;
13897;SDS011;7019;50.766;4.474;2022-10-16T13:48:24;2.90;;;1.07;;
13897;SDS011;7019;50.766;4.474;2022-10-16T13:50:58;4.57;;;1.30;;
13897;SDS011;7019;50.766;4.474;2022-10-16T13:53:26;3.37;;;1.13;;
13897;SDS011;7019;50.766;4.474;2022-10-16T13:55:56;4.10;;;1.00;;
13897;SDS011;7019;50.766;4.474;2022-10-16T13:58:26;5.30;;;1.50;;
13897;SDS011;7019;50.766;4.474;2022-10-16T14:00:54;4.93;;;1.10;;
13897;SDS011;7019;50.766;4.474;2022-10-16T14:03:23;2.87;;;1.30;;
13897;SDS011;7019;50.766;4.474;2022-10-16T14:05:52;3.43;;;1.10;;
13897;SDS011;7019;50.766;4.474;2022-10-16T14:08:20;6.10;;;1.40;;
13897;SDS011;7019;50.766;4.474;2022-10-16T14:10:49;5.10;;;1.30;;
13897;SDS011;7019;50.766;4.474;2022-10-16T14:13:18;6.17;;;1.50;;
13897;SDS011;7019;50.766;4.474;2022-10-16T14:15:49;4.93;;;1.20;;
13897;SDS011;7019;50.766;4.474;2022-10-16T14:18:20;3.77;;;1.30;;
13897;SDS011;7019;50.766;4.474;2022-10-16T14:20:49;9.43;;;1.40;;
13897;SDS011;7019;50.766;4.474;2022-10-16T14:23:21;4.60;;;1.37;;
13897;SDS011;7019;50.766;4.474;2022-10-16T14:25:51;3.77;;;1.50;;
13897;SDS011;7019;50.766;4.474;2022-10-16T14:28:18;12.10;;;5.40;;
13897;SDS011;7019;50.766;4.474;2022-10-16T14:30:51;6.37;;;3.07;;
13897;SDS011;7019;50.766;4.474;2022-10-16T14:33:20;6.93;;;3.73;;
13897;SDS011;7019;50.766;4.474;2022-10-16T14:35:59;7.67;;;1.67;;
13897;SDS011;7019;50.766;4.474;2022-10-16T14:38:28;4.63;;;1.10;;
13897;SDS011;7019;50.766;4.474;2022-10-16T14:40:56;3.37;;;1.40;;
13897;SDS011;7019;50.766;4.474;2022-10-16T14:43:27;5.23;;;1.27;;
13897;SDS011;7019;50.766;4.474;2022-10-16T14:46:00;4.63;;;2.00;;
13897;SDS011;7019;50.766;4.474;2022-10-16T14:48:29;5.00;;;1.97;;
13897;SDS011;7019;50.766;4.474;2022-10-16T14:50:56;3.97;;;1.77;;
13897;SDS011;7019;50.766;4.474;2022-10-16T14:53:23;3.80;;;1.60;;
13897;SDS011;7019;50.766;4.474;2022-10-16T14:55:50;4.03;;;1.43;;
13897;SDS011;7019;50.766;4.474;2022-10-16T14:58:18;11.00;;;1.90;;
13897;SDS011;7019;50.766;4.474;2022-10-16T15:00:47;4.50;;;1.43;;
13897;SDS011;7019;50.766;4.474;2022-10-16T15:03:15;3.60;;;1.60;;
13897;SDS011;7019;50.766;4.474;2022-10-16T15:05:43;6.53;;;1.47;;
13897;SDS011;7019;50.766;4.474;2022-10-16T15:08:10;3.57;;;1.70;;
13897;SDS011;7019;50.766;4.474;2022-10-16T15:10:38;4.30;;;1.70;;
13897;SDS011;7019;50.766;4.474;2022-10-16T15:13:08;3.90;;;1.20;;
13897;SDS011;7019;50.766;4.474;2022-10-16T15:15:39;2.53;;;1.00;;
13897;SDS011;7019;50.766;4.474;2022-10-16T15:18:09;4.80;;;1.70;;
13897;SDS011;7019;50.766;4.474;2022-10-16T15:20:38;2.57;;;1.23;;
13897;SDS011;7019;50.766;4.474;2022-10-16T15:23:06;6.03;;;1.53;;
13897;SDS011;7019;50.766;4.474;2022-10-16T15:25:39;8.77;;;1.80;;
13897;SDS011;7019;50.766;4.474;2022-10-16T15:28:09;4.20;;;1.40;;
13897;SDS011;7019;50.766;4.474;2022-10-16T15:30:37;6.47;;;1.60;;
13897;SDS011;7019;50.766;4.474;2022-10-16T15:33:08;4.27;;;1.00;;
13897;SDS011;7019;50.766;4.474;2022-10-16T15:35:39;3.87;;;1.47;;